createdAt,value
2019-01-18T00:00:58.282Z,87.36
2019-01-18T00:06:14.097Z,86.84
2019-01-18T00:09:01.725Z,85.87
2019-01-18T00:11:30.098Z,85.75
2019-01-18T00:13:58.469Z,85.23
2019-01-18T00:16:26.849Z,85.19
2019-01-18T00:19:14.348Z,84.93
2019-01-18T00:21:42.720Z,85.22
2019-01-18T00:26:44.806Z,85.20
2019-01-18T00:29:13.198Z,85.48
2019-01-18T00:32:00.813Z,85.06
2019-01-18T00:39:37.062Z,85.16
2019-01-18T00:42:05.429Z,85.40
2019-01-18T00:44:33.810Z,85.83
2019-01-18T00:47:21.420Z,85.85
2019-01-18T00:49:49.799Z,86.04
2019-01-18T00:52:18.177Z,86.96
2019-01-18T00:54:46.554Z,86.80
2019-01-18T00:57:14.926Z,87.63
2019-01-18T00:59:43.300Z,87.25
2019-01-18T01:02:31.025Z,86.28
2019-01-18T01:07:33.428Z,86.27
2019-01-18T01:10:01.796Z,86.49
2019-01-18T01:12:30.413Z,86.69
2019-01-18T01:17:53.327Z,87.49
2019-01-18T01:21:01.618Z,87.51
2019-01-18T01:23:49.106Z,87.28
2019-01-18T01:28:51.265Z,87.62
2019-01-18T01:31:38.765Z,87.33
2019-01-18T01:36:54.581Z,88.10
2019-01-18T01:39:22.953Z,87.90
2019-01-18T01:42:10.680Z,87.41
2019-01-18T01:47:26.843Z,86.47
2019-01-18T01:53:01.778Z,87.15
2019-01-18T01:55:49.434Z,86.40
2019-01-18T01:58:17.839Z,85.89
2019-01-18T02:00:46.176Z,85.82
2019-01-18T02:06:08.062Z,86.47
2019-01-18T02:08:55.685Z,86.15
2019-01-18T02:11:43.183Z,86.01
2019-01-18T02:14:11.557Z,85.90
2019-01-18T02:16:59.058Z,85.50
2019-01-18T02:19:27.429Z,85.87
2019-01-18T02:21:55.815Z,85.39
2019-01-18T02:24:43.436Z,85.43
2019-01-18T02:27:11.820Z,85.51
2019-01-18T02:29:59.313Z,85.43
2019-01-18T02:32:27.700Z,85.43
2019-01-18T02:35:15.318Z,85.66
2019-01-18T02:40:37.067Z,86.14
2019-01-18T02:43:05.452Z,86.14
2019-01-18T02:45:52.939Z,86.40
2019-01-18T02:48:21.319Z,86.75
2019-01-18T02:51:08.941Z,87.54
2019-01-18T02:53:37.326Z,86.64
2019-01-18T02:56:45.608Z,86.59
2019-01-18T02:59:13.995Z,86.55
2019-01-18T03:02:01.618Z,84.87
2019-01-18T03:04:29.997Z,84.21
2019-01-18T03:07:17.627Z,84.36
2019-01-18T03:09:46.002Z,84.58
2019-01-18T03:12:14.387Z,83.92
2019-01-18T03:14:42.763Z,83.93
2019-01-18T03:17:11.169Z,83.50
2019-01-18T03:19:58.659Z,83.63
2019-01-18T03:22:27.042Z,84.02
2019-01-18T03:27:42.865Z,83.71
2019-01-18T03:30:51.151Z,83.78
2019-01-18T03:33:19.543Z,83.84
2019-01-18T03:38:35.360Z,83.54
2019-01-18T03:44:11.799Z,82.94
2019-01-18T03:46:40.174Z,82.84
2019-01-18T03:49:08.553Z,82.95
2019-01-18T03:51:56.542Z,82.94
2019-01-18T03:56:58.536Z,82.63
2019-01-18T04:02:01.396Z,82.00
2019-01-18T04:04:48.903Z,81.20
2019-01-18T04:07:17.273Z,81.01
2019-01-18T04:10:25.571Z,81.58
2019-01-18T04:13:13.061Z,80.87
2019-01-18T04:18:30.522Z,81.67
2019-01-18T04:24:05.460Z,83.40
2019-01-18T04:29:21.279Z,82.81
2019-01-18T04:31:49.659Z,82.40
2019-01-18T04:34:18.034Z,82.75
2019-01-18T04:37:05.657Z,81.94
2019-01-18T04:39:34.038Z,81.37
2019-01-18T04:42:21.752Z,80.71
2019-01-18T04:44:50.140Z,81.08
2019-01-18T04:47:18.519Z,81.46
2019-01-18T04:50:06.148Z,81.39
2019-01-18T04:52:54.004Z,82.65
2019-01-18T04:58:17.276Z,83.31
2019-01-18T05:00:45.669Z,83.07
2019-01-18T05:03:14.047Z,83.51
2019-01-18T05:06:01.677Z,84.68
2019-01-18T05:11:17.507Z,83.53
2019-01-18T05:13:45.881Z,83.19
2019-01-18T05:19:12.343Z,82.74
2019-01-18T05:21:40.721Z,82.48
2019-01-18T05:24:09.103Z,83.08
2019-01-18T05:29:12.178Z,82.55
2019-01-18T05:31:59.814Z,82.40
2019-01-18T05:34:28.186Z,82.12
2019-01-18T05:37:15.813Z,82.39
2019-01-18T05:40:03.457Z,82.25
2019-01-18T05:42:51.082Z,82.29
2019-01-18T05:45:38.815Z,82.43
2019-01-18T05:48:26.439Z,82.44
2019-01-18T05:50:54.818Z,82.15
2019-01-18T05:56:31.397Z,81.97
2019-01-18T05:59:18.888Z,82.15
2019-01-18T06:01:47.274Z,81.99
2019-01-18T06:04:34.909Z,83.05
2019-01-18T06:07:22.405Z,82.96
2019-01-18T06:12:38.226Z,81.75
2019-01-18T06:15:46.523Z,81.86
2019-01-18T06:18:34.138Z,82.07
2019-01-18T06:21:21.775Z,82.24
2019-01-18T06:23:50.151Z,83.10
2019-01-18T06:26:37.784Z,83.28
2019-01-18T06:29:06.160Z,84.69
2019-01-18T06:31:34.633Z,85.09
2019-01-18T06:34:22.261Z,84.47
2019-01-18T06:36:50.638Z,84.08
2019-01-18T06:39:38.216Z,84.03
2019-01-18T06:42:06.602Z,83.90
2019-01-18T06:44:54.221Z,83.87
2019-01-18T06:47:22.602Z,84.00
2019-01-18T06:49:50.994Z,84.13
2019-01-18T06:52:38.723Z,84.65
2019-01-18T06:55:47.025Z,84.45
2019-01-18T06:58:29.768Z,84.60
2019-01-18T07:00:45.579Z,85.02
2019-01-18T07:03:13.973Z,85.43
2019-01-18T07:05:42.371Z,85.07
2019-01-18T07:08:10.947Z,84.83
2019-01-18T07:10:58.788Z,84.64
2019-01-18T07:13:46.329Z,84.64
2019-01-18T07:16:54.642Z,85.02
2019-01-18T07:22:10.569Z,85.06
2019-01-18T07:24:39.048Z,85.04
2019-01-18T07:27:26.734Z,84.88
2019-01-18T07:30:14.238Z,84.59
2019-01-18T07:33:22.534Z,84.18
2019-01-18T07:35:50.915Z,84.74
2019-01-18T07:38:19.299Z,85.62
2019-01-18T07:43:35.124Z,84.51
2019-01-18T07:46:22.750Z,83.65
2019-01-18T07:48:51.126Z,83.85
2019-01-18T07:51:19.508Z,84.27
2019-01-18T07:53:47.881Z,83.74
2019-01-18T07:56:56.170Z,83.17
2019-01-18T07:59:24.537Z,82.87
2019-01-18T08:01:52.920Z,82.76
2019-01-18T08:10:03.035Z,81.90
2019-01-18T08:15:44.926Z,83.70
2019-01-18T08:18:13.305Z,88.07
2019-01-18T08:20:41.677Z,88.79
2019-01-18T08:23:29.174Z,83.63
2019-01-18T08:26:16.661Z,76.04
2019-01-18T08:28:45.036Z,68.40
2019-01-18T08:31:13.406Z,63.14
2019-01-18T08:33:41.780Z,61.29
2019-01-18T08:36:50.066Z,58.64
2019-01-18T08:39:18.433Z,56.85
2019-01-18T08:41:46.819Z,51.46
2019-01-18T08:44:15.199Z,51.71
2019-01-18T08:47:02.825Z,48.11
2019-01-18T08:49:31.205Z,48.51
2019-01-18T08:52:18.699Z,45.58
2019-01-18T08:55:06.319Z,46.44
2019-01-18T08:57:53.820Z,45.07
2019-01-18T09:03:28.982Z,42.33
2019-01-18T09:05:57.359Z,40.24
2019-01-18T09:08:45.251Z,41.49
2019-01-18T09:11:13.625Z,38.26
2019-01-18T09:16:35.542Z,39.13
2019-01-18T09:19:03.922Z,37.84
2019-01-18T09:21:32.295Z,37.08
2019-01-18T09:26:56.015Z,38.03
2019-01-18T09:29:24.410Z,38.92
2019-01-18T09:31:52.785Z,38.84
2019-01-18T09:34:21.169Z,37.82
2019-01-18T09:37:08.796Z,38.25
2019-01-18T09:39:37.184Z,38.31
2019-01-18T09:42:05.630Z,39.21
2019-01-18T09:47:45.175Z,39.52
2019-01-18T09:50:53.466Z,39.55
2019-01-18T09:53:41.108Z,40.26
2019-01-18T09:56:49.423Z,41.09
2019-01-18T09:59:17.809Z,41.06
2019-01-18T10:01:49.445Z,41.12
2019-01-18T10:04:16.375Z,42.95
2019-01-18T10:07:04.072Z,41.50
2019-01-18T10:09:51.713Z,43.37
2019-01-18T10:12:20.090Z,44.54
2019-01-18T10:14:48.474Z,44.57
2019-01-18T10:17:36.296Z,43.30
2019-01-18T10:20:44.587Z,42.91
2019-01-18T10:23:32.154Z,44.31
2019-01-18T10:26:00.680Z,43.38
2019-01-18T10:29:02.973Z,44.90
2019-01-18T10:34:05.940Z,44.40
2019-01-18T10:36:34.309Z,45.25
2019-01-18T10:39:21.937Z,45.25
2019-01-18T10:42:09.559Z,45.66
2019-01-18T10:44:38.079Z,43.42
2019-01-18T10:47:06.609Z,43.04
2019-01-18T10:49:54.110Z,44.04
2019-01-18T10:55:49.895Z,47.32
2019-01-18T10:58:37.515Z,50.86
2019-01-18T11:06:06.777Z,57.66
2019-01-18T11:08:54.391Z,58.51
2019-01-18T11:11:22.846Z,60.39
2019-01-18T11:13:51.222Z,62.00
2019-01-18T11:16:19.774Z,62.42
2019-01-18T11:19:07.530Z,63.30
2019-01-18T11:21:55.244Z,63.27
2019-01-18T11:24:42.748Z,64.26
2019-01-18T11:27:30.234Z,65.53
2019-01-18T11:30:17.991Z,64.97
2019-01-18T11:32:46.357Z,66.34
2019-01-18T11:40:44.021Z,66.90
2019-01-18T11:43:31.637Z,66.77
2019-01-18T11:46:00.020Z,67.15
2019-01-18T11:48:50.338Z,68.41
2019-01-18T11:51:17.612Z,69.57
2019-01-18T11:53:45.977Z,69.81
2019-01-18T11:56:33.601Z,69.53
2019-01-18T11:59:01.979Z,70.01
2019-01-18T12:01:30.356Z,69.38
2019-01-18T12:06:46.175Z,70.14
2019-01-18T12:09:33.659Z,69.37
2019-01-18T12:12:02.049Z,69.69
2019-01-18T12:17:38.621Z,70.47
2019-01-18T12:20:46.911Z,69.77
2019-01-18T12:23:15.277Z,69.94
2019-01-18T12:26:02.905Z,70.06
2019-01-18T12:28:31.275Z,69.50
2019-01-18T12:30:59.653Z,69.16
2019-01-18T12:33:47.278Z,68.84
2019-01-18T12:36:15.658Z,68.34
2019-01-18T12:38:44.030Z,69.43
2019-01-18T12:41:12.415Z,69.20
2019-01-18T12:44:00.031Z,69.59
2019-01-18T12:46:28.414Z,70.02
2019-01-18T12:52:05.731Z,71.57
2019-01-18T12:54:53.347Z,70.87
2019-01-18T12:57:21.743Z,71.56
2019-01-18T13:00:09.362Z,72.43
2019-01-18T13:02:37.948Z,71.96
2019-01-18T13:05:46.232Z,72.52
2019-01-18T13:08:14.617Z,72.14
2019-01-18T13:13:30.425Z,72.40
2019-01-18T13:16:38.719Z,72.55
2019-01-18T13:19:26.338Z,71.29
2019-01-18T13:21:54.787Z,70.65
2019-01-18T13:25:03.074Z,71.53
2019-01-18T13:30:45.349Z,71.64
2019-01-18T13:33:32.968Z,71.39
2019-01-18T13:36:20.587Z,71.71
2019-01-18T13:41:22.649Z,70.87
2019-01-18T13:43:51.048Z,71.54
2019-01-18T13:46:58.021Z,71.82
2019-01-18T13:52:13.829Z,71.14
2019-01-18T13:54:42.203Z,71.69
2019-01-18T13:57:29.920Z,72.14
2019-01-18T14:00:17.539Z,72.09
2019-01-18T14:03:05.172Z,71.44
2019-01-18T14:05:52.661Z,71.99
2019-01-18T14:08:21.038Z,71.77
2019-01-18T14:11:08.725Z,71.69
2019-01-18T14:13:37.556Z,71.72
2019-01-18T14:16:07.198Z,72.19
2019-01-18T14:18:54.828Z,71.54
2019-01-18T14:21:23.214Z,72.10
2019-01-18T14:24:10.837Z,72.55
2019-01-18T14:26:58.459Z,72.05
2019-01-18T14:29:26.837Z,72.22
2019-01-18T14:32:14.329Z,71.53
2019-01-18T14:34:42.713Z,71.07
2019-01-18T14:37:30.325Z,71.24
2019-01-18T14:40:17.826Z,70.96
2019-01-18T14:43:26.114Z,71.50
2019-01-18T14:45:54.487Z,71.76
2019-01-18T14:51:17.541Z,70.92
2019-01-18T14:56:19.602Z,71.29
2019-01-18T14:58:47.982Z,72.03
2019-01-18T15:01:35.476Z,71.88
2019-01-18T15:06:58.537Z,72.20
2019-01-18T15:09:26.924Z,71.79
2019-01-18T15:11:55.289Z,71.33
2019-01-18T15:14:23.835Z,71.10
2019-01-18T15:19:58.763Z,70.80
2019-01-18T15:22:46.306Z,70.43
2019-01-18T15:25:33.996Z,70.26
2019-01-18T15:28:21.620Z,70.68
2019-01-18T15:31:29.946Z,71.51
2019-01-18T15:33:58.320Z,71.86
2019-01-18T15:41:50.716Z,72.99
2019-01-18T15:44:19.097Z,73.04
2019-01-18T15:47:06.590Z,73.91
2019-01-18T15:49:34.974Z,73.57
2019-01-18T15:52:03.340Z,73.45
2019-01-18T15:54:31.726Z,74.21
2019-01-18T15:57:19.214Z,74.63
2019-01-18T16:00:06.863Z,74.74
2019-01-18T16:02:35.317Z,74.54
2019-01-18T16:07:58.955Z,74.75
2019-01-18T16:10:46.915Z,74.86
2019-01-18T16:13:34.540Z,74.60
2019-01-18T16:16:42.838Z,73.80
2019-01-18T16:19:30.336Z,73.60
2019-01-18T16:22:17.826Z,73.04
2019-01-18T16:25:05.530Z,72.48
2019-01-18T16:27:33.903Z,71.93
2019-01-18T16:30:02.342Z,72.19
2019-01-18T16:32:30.708Z,71.85
2019-01-18T16:34:59.235Z,71.47
2019-01-18T16:37:27.613Z,71.25
2019-01-18T16:40:15.115Z,71.06
2019-01-18T16:43:23.400Z,70.92
2019-01-18T16:45:51.786Z,70.97
2019-01-18T16:48:20.164Z,71.22
2019-01-18T16:50:48.545Z,71.24
2019-01-18T16:53:56.837Z,71.25
2019-01-18T16:56:44.334Z,71.40
2019-01-18T16:59:12.712Z,71.85
2019-01-18T17:01:41.101Z,72.14
2019-01-18T17:04:28.727Z,72.38
2019-01-18T17:07:16.352Z,72.62
2019-01-18T17:09:44.737Z,73.25
2019-01-18T17:14:47.260Z,74.21
2019-01-18T17:17:15.641Z,74.73
2019-01-18T17:20:03.125Z,75.07
2019-01-18T17:22:31.510Z,75.42
2019-01-18T17:25:11.814Z,76.39
2019-01-18T17:27:29.980Z,77.12
2019-01-18T17:30:17.593Z,77.49
2019-01-18T17:36:20.618Z,77.03
2019-01-18T17:39:27.581Z,77.11
2019-01-18T17:42:34.560Z,76.49
2019-01-18T17:45:41.557Z,76.66
2019-01-18T17:48:48.527Z,76.99
2019-01-18T17:51:55.504Z,77.69
2019-01-18T17:55:03.861Z,78.11
2019-01-18T17:58:12.159Z,78.61
2019-01-18T18:01:20.449Z,78.75
2019-01-18T18:04:28.736Z,79.26
2019-01-18T18:07:37.100Z,78.68
2019-01-18T18:10:44.740Z,78.51
2019-01-18T18:13:53.030Z,78.12
2019-01-18T18:17:00.004Z,77.21
2019-01-18T18:20:08.286Z,76.74
2019-01-18T18:23:15.256Z,76.41
2019-01-18T18:26:23.593Z,75.70
2019-01-18T18:29:31.951Z,75.20
2019-01-18T18:32:38.918Z,75.50
2019-01-18T18:35:47.252Z,75.59
2019-01-18T18:38:54.221Z,75.37
2019-01-18T18:42:01.191Z,75.80
2019-01-18T18:45:09.533Z,75.73
2019-01-18T18:48:17.908Z,75.18
2019-01-18T18:51:24.942Z,75.56
2019-01-18T18:54:32.049Z,76.19
2019-01-18T18:57:40.453Z,75.40
2019-01-18T19:00:47.566Z,75.14
2019-01-18T19:03:57.553Z,75.22
2019-01-18T19:07:03.230Z,74.62
2019-01-18T19:10:10.192Z,74.67
2019-01-18T19:13:17.169Z,75.43
2019-01-18T19:16:24.131Z,75.27
2019-01-18T19:19:32.422Z,74.46
2019-01-18T19:22:39.393Z,73.73
2019-01-18T19:25:46.358Z,73.53
2019-01-18T19:28:54.652Z,73.72
2019-01-18T19:32:01.614Z,73.87
2019-01-18T19:35:09.974Z,72.92
2019-01-18T19:38:18.318Z,73.00
2019-01-18T19:41:26.597Z,72.79
2019-01-18T19:44:34.891Z,73.23
2019-01-18T19:47:43.255Z,73.11
2019-01-18T19:50:51.560Z,73.54
2019-01-18T19:53:59.920Z,73.82
2019-01-18T19:57:08.274Z,74.40
2019-01-18T20:00:16.627Z,74.68
2019-01-18T20:03:24.979Z,74.62
2019-01-18T20:06:33.259Z,74.91
2019-01-18T20:09:40.379Z,74.63
2019-01-18T20:12:48.654Z,73.91
2019-01-18T20:18:48.499Z,72.62
2019-01-18T20:31:13.753Z,72.60
2019-01-18T20:34:22.099Z,72.36
2019-01-18T20:37:30.384Z,72.11
2019-01-18T20:40:38.672Z,72.05
2019-01-18T20:43:45.631Z,71.73
2019-01-18T20:46:52.608Z,71.66
2019-01-18T20:49:59.584Z,71.67
2019-01-18T20:53:07.944Z,71.80
2019-01-18T20:56:15.054Z,71.98
2019-01-18T20:59:23.538Z,72.32
2019-01-18T21:02:30.516Z,72.56
2019-01-18T21:05:38.808Z,72.51
2019-01-18T21:08:47.095Z,72.84
2019-01-18T21:11:55.395Z,73.23
2019-01-18T21:15:03.924Z,73.57
2019-01-18T21:18:12.225Z,73.98
2019-01-18T21:21:19.194Z,73.99
2019-01-18T21:24:27.474Z,73.91
2019-01-18T21:27:34.456Z,74.08
2019-01-18T21:30:41.429Z,74.05
2019-01-18T21:33:49.716Z,73.55
2019-01-18T21:36:56.815Z,73.28
2019-01-18T21:40:03.765Z,73.38
2019-01-18T21:43:10.728Z,73.58
2019-01-18T21:46:19.282Z,74.00
2019-01-18T21:49:26.396Z,73.90
2019-01-18T21:52:33.372Z,73.87
2019-01-18T21:55:40.357Z,73.52
2019-01-18T21:58:48.642Z,73.62
2019-01-18T22:01:56.990Z,73.94
2019-01-18T22:05:05.276Z,73.86
2019-01-18T22:08:13.569Z,73.77
2019-01-18T22:11:20.542Z,73.83
2019-01-18T22:14:28.822Z,73.71
2019-01-18T22:17:37.115Z,74.14
2019-01-18T22:20:44.091Z,74.68
2019-01-18T22:23:51.074Z,74.36
2019-01-18T22:26:59.439Z,73.95
2019-01-18T22:30:07.780Z,74.29
2019-01-18T22:33:16.125Z,74.06
2019-01-18T22:36:23.093Z,73.86
2019-01-18T22:39:31.388Z,73.95
2019-01-18T22:42:38.371Z,73.41
2019-01-18T22:45:46.713Z,73.19
2019-01-18T22:48:55.004Z,73.05
2019-01-18T22:52:03.301Z,73.05
2019-01-18T22:55:11.591Z,73.03
2019-01-18T22:58:18.575Z,73.45
2019-01-18T23:01:25.543Z,74.25
2019-01-18T23:04:32.539Z,74.47
2019-01-18T23:07:39.524Z,74.54
2019-01-18T23:10:47.808Z,74.70
2019-01-18T23:13:56.097Z,74.31
2019-01-18T23:17:04.393Z,74.63
2019-01-18T23:20:11.364Z,75.05
2019-01-18T23:23:19.719Z,74.76
2019-01-18T23:26:26.682Z,74.69
2019-01-18T23:29:33.653Z,74.34
2019-01-18T23:32:41.993Z,74.57
2019-01-18T23:35:50.336Z,74.71
2019-01-18T23:38:57.264Z,75.22
2019-01-18T23:42:04.231Z,75.31
2019-01-18T23:45:11.218Z,75.60
2019-01-18T23:48:18.185Z,75.35
2019-01-18T23:51:25.163Z,75.06
2019-01-18T23:54:32.140Z,74.82
2019-01-18T23:57:39.103Z,75.06
